Silverton, Texas
Current Conditions -  °F | °C
As of 4:35 PM on Friday 24 Oct 2014 (Local Time) from KPVW Reporting Station
Clear Clear  
Wind Chill: 83°   Ceiling: Unl
Heat Index: 83°   Visibility: 10mi
Dew Point: 46°   Wind: 9mph
Humidity: 27%   Direction: 240°WSW
Pressure: 30.11"   Gusts: 17mph
Location:  34.47°N, 101.3°W
Report Text: KPVW 242135Z AUTO 24008G15KT 10SM CLR 29/08 A3011 RMK AO2 T02850075
Loading
Personal Weather Stations






























Interactive Weather Map
Tropical Storm Tracking
New forecast layout! Learn more

10-Day Weather Forecast

Advertisements
Track Severe Weather on mobile